Search for airport 
image banner adimage banner adimage banner ad
image banner ad

KISB - Sibley Muni

Located in Sibley, United States

ICAO - ISB, IATA -

Data provided by Airmate  

General information

Coordinates: N43°22'10" W95°45'35"
Elevation is 1538 feet MSL.
Magnetic variation is 02° East
View others Airports in Iowa

Operational data

Special qualification required
Current time UTC:
Current local time:
Weather at : KSHL - Sheldon Rgnl ( 19 km )
METAR: KSHL 181715Z AUTO 16007KT 130V190 10SM CLR 29/11 A2988 RMK AO2
View NOTAMs / SUP AIP / TFR affecting this airport [VIEW]
Communications frequencies: [VIEW]

Runways:

RWY identifierQFULength (ft)Width (ft)SurfaceLDA (ft)
17180°300050CONC
35300050CONC

Airport contact information

Address: Sibley United States

Satellite view of KISB